createdAt,value
2022-08-11T00:00:03.063Z,17.89
2022-08-11T00:05:02.980Z,17.54
2022-08-11T00:10:02.608Z,17.85
2022-08-11T00:15:03.329Z,17.88
2022-08-11T00:20:16.475Z,17.76
2022-08-11T00:25:03.211Z,17.56
2022-08-11T00:30:02.676Z,17.55
2022-08-11T00:35:57.785Z,17.55
2022-08-11T00:40:02.847Z,17.4
2022-08-11T00:45:02.633Z,17.07
2022-08-11T00:50:03.360Z,16.92
2022-08-11T00:55:03.663Z,17.04
2022-08-11T01:00:04.009Z,17.08
2022-08-11T01:05:02.343Z,16.95
2022-08-11T01:10:07.578Z,16.89
2022-08-11T01:15:02.851Z,16.81
2022-08-11T01:20:49.047Z,16.84
2022-08-11T01:25:02.408Z,16.78
2022-08-11T01:30:03.107Z,16.54
2022-08-11T01:35:02.595Z,16.06
2022-08-11T01:40:02.228Z,15.9
2022-08-11T01:45:03.259Z,15.69
2022-08-11T01:50:10.729Z,15.73
2022-08-11T01:55:03.544Z,15.64
2022-08-11T02:00:03.255Z,15.69
2022-08-11T02:05:02.940Z,15.74
2022-08-11T02:10:02.719Z,15.49
2022-08-11T02:15:04.861Z,14.08
2022-08-11T02:20:02.865Z,14.78
2022-08-11T02:25:02.441Z,15.6
2022-08-11T02:30:02.929Z,15.89
2022-08-11T02:35:02.817Z,15.96
2022-08-11T02:40:03.495Z,15.85
2022-08-11T02:45:02.878Z,15.69
2022-08-11T02:50:08.163Z,15.6
2022-08-11T02:55:03.774Z,15.49
2022-08-11T03:00:03.239Z,15.2
2022-08-11T03:05:03.021Z,15.18
2022-08-11T03:10:02.803Z,15.03
2022-08-11T03:15:02.642Z,14.89
2022-08-11T03:20:02.464Z,14.61
2022-08-11T03:25:03.082Z,14.01
2022-08-11T03:30:02.625Z,13.33
2022-08-11T03:35:03.206Z,12.86
2022-08-11T03:40:03.568Z,12.51
2022-08-11T03:45:02.887Z,12.32
2022-08-11T03:50:02.459Z,11.98
2022-08-11T03:55:04.570Z,11.98
2022-08-11T04:00:02.916Z,11.93
2022-08-11T04:05:02.446Z,12.21
2022-08-11T04:10:03.202Z,13.13
2022-08-11T04:15:02.968Z,13.64
2022-08-11T04:20:02.685Z,13.71
2022-08-11T04:25:02.572Z,13.65
2022-08-11T04:30:12.033Z,13.62
2022-08-11T04:35:02.748Z,13.64
2022-08-11T04:40:02.744Z,13.65
2022-08-11T04:45:03.279Z,13.83
2022-08-11T04:50:02.620Z,14.17
2022-08-11T04:55:04.531Z,14.62
2022-08-11T05:00:02.714Z,15.22
2022-08-11T05:05:02.621Z,17.09
2022-08-11T05:10:03.259Z,17.6
2022-08-11T05:15:02.925Z,18.59
2022-08-11T05:20:02.584Z,19.25
2022-08-11T05:25:03.145Z,20.12
2022-08-11T05:30:02.753Z,21.64
2022-08-11T05:35:02.340Z,21.59
2022-08-11T05:40:03.332Z,20.93
2022-08-11T05:45:03.511Z,20.98
2022-08-11T05:50:02.820Z,20.97
2022-08-11T05:55:07.899Z,21.53
2022-08-11T06:00:03.434Z,22.12
2022-08-11T06:05:02.449Z,22.07
2022-08-11T06:10:02.267Z,22.92
2022-08-11T06:15:03.072Z,23.77
2022-08-11T06:20:04.167Z,23.84
2022-08-11T06:25:02.478Z,23.71
2022-08-11T06:30:03.425Z,23.94
2022-08-11T06:35:02.813Z,24.37
2022-08-11T06:40:02.474Z,24.64
2022-08-11T06:45:03.952Z,25.14
2022-08-11T06:50:02.862Z,25.45
2022-08-11T06:55:04.545Z,25.99
2022-08-11T07:00:02.935Z,26.09
2022-08-11T07:05:02.364Z,26.32
2022-08-11T07:10:03.133Z,27.23
2022-08-11T07:15:02.512Z,26.57
2022-08-11T07:20:04.494Z,27.14
2022-08-11T07:25:03.884Z,27.21
2022-08-11T07:30:02.663Z,27.73
2022-08-11T07:35:02.345Z,28.09
2022-08-11T07:40:02.850Z,28.68
2022-08-11T07:45:02.504Z,28.1
2022-08-11T07:50:03.215Z,27.93
2022-08-11T07:55:04.084Z,27.61
2022-08-11T08:00:05.125Z,28.2
2022-08-11T08:05:02.357Z,28.38
2022-08-11T08:10:03.022Z,29.37
2022-08-11T08:15:02.553Z,29.87
2022-08-11T08:20:03.302Z,29.1
2022-08-11T08:25:03.058Z,29.99
2022-08-11T08:30:02.820Z,30.51
2022-08-11T08:35:02.418Z,30.29
2022-08-11T08:45:02.905Z,30.63
2022-08-11T08:50:02.582Z,31.2
2022-08-11T08:55:03.945Z,30.74
2022-08-11T09:00:04.637Z,30.99
2022-08-11T09:05:02.453Z,30.77
2022-08-11T09:10:03.296Z,31.8
2022-08-11T09:15:02.768Z,31.88
2022-08-11T09:20:03.764Z,30.8
2022-08-11T09:25:02.976Z,31.79
2022-08-11T09:30:02.452Z,31.18
2022-08-11T09:35:03.051Z,31.61
2022-08-11T09:40:02.380Z,30.79
2022-08-11T09:45:03.476Z,30.31
2022-08-11T09:50:02.818Z,29.15
2022-08-11T09:55:03.640Z,28.83
2022-08-11T10:00:14.555Z,28.36
2022-08-11T10:05:03.225Z,30.48
2022-08-11T10:10:02.865Z,31.91
2022-08-11T10:15:02.526Z,30.57
2022-08-11T10:20:06.338Z,32.05
2022-08-11T10:25:02.796Z,31.8
2022-08-11T10:30:04.278Z,31.51
2022-08-11T10:35:03.055Z,29.95
2022-08-11T10:40:02.714Z,28.48
2022-08-11T10:45:03.366Z,29.55
2022-08-11T10:50:05.729Z,29.71
2022-08-11T10:55:03.810Z,31.3
2022-08-11T11:00:03.074Z,31.59
2022-08-11T11:05:02.764Z,32.55
2022-08-11T11:10:02.457Z,31.34
2022-08-11T11:15:03.044Z,31.41
2022-08-11T11:20:02.559Z,30.78
2022-08-11T11:25:03.174Z,32.07
2022-08-11T11:30:02.659Z,31.34
2022-08-11T11:35:02.221Z,30.94
2022-08-11T11:40:03.010Z,32.29
2022-08-11T11:45:02.325Z,33.32
2022-08-11T11:50:02.914Z,32.79
2022-08-11T11:55:04.431Z,33.61
2022-08-11T12:00:02.697Z,33.37
2022-08-11T12:05:02.766Z,33
2022-08-11T12:10:03.133Z,31.45
2022-08-11T12:15:03.101Z,29.54
2022-08-11T12:20:02.965Z,31
2022-08-11T12:25:03.043Z,32.41
2022-08-11T12:30:03.450Z,32.66
2022-08-11T12:35:03.125Z,32.81
2022-08-11T12:40:37.831Z,34.02
2022-08-11T12:45:03.404Z,33.93
2022-08-11T12:50:03.314Z,33.88
2022-08-11T12:55:03.748Z,32.38
2022-08-11T13:00:03.291Z,33.35
2022-08-11T13:05:02.623Z,33.39
2022-08-11T13:10:02.475Z,33.48
2022-08-11T13:15:03.209Z,33.53
2022-08-11T13:20:02.945Z,31.86
2022-08-11T13:25:02.578Z,31.31
2022-08-11T13:30:03.229Z,32.96
2022-08-11T13:35:02.827Z,32.34
2022-08-11T13:40:02.189Z,32.07
2022-08-11T13:45:02.986Z,32.94
2022-08-11T13:50:02.401Z,32.17
2022-08-11T13:55:04.540Z,32.08
2022-08-11T14:00:02.434Z,32.17
2022-08-11T14:05:03.351Z,32.93
2022-08-11T14:10:02.949Z,32.46
2022-08-11T14:15:09.058Z,32.15
2022-08-11T14:20:40.984Z,33.57
2022-08-11T14:25:02.794Z,34.42
2022-08-11T14:30:02.658Z,33.71
2022-08-11T14:35:03.098Z,32.02
2022-08-11T14:40:04.859Z,31.42
2022-08-11T14:45:02.821Z,31.72
2022-08-11T14:50:13.000Z,31.92
2022-08-11T14:55:04.844Z,33.17
2022-08-11T15:00:02.695Z,32.95
2022-08-11T15:05:03.251Z,32.71
2022-08-11T15:10:12.590Z,31.77
2022-08-11T15:15:02.845Z,31.51
2022-08-11T15:20:02.492Z,31.42
2022-08-11T15:25:03.203Z,31.23
2022-08-11T15:30:02.849Z,32.31
2022-08-11T15:35:04.203Z,32.71
2022-08-11T15:40:03.451Z,32.78
2022-08-11T15:45:05.243Z,31.44
2022-08-11T15:50:14.297Z,31.92
2022-08-11T15:55:03.917Z,31.69
2022-08-11T16:00:02.723Z,31.33
2022-08-11T16:05:02.293Z,31.03
2022-08-11T16:10:05.038Z,31.65
2022-08-11T16:15:02.290Z,31.6
2022-08-11T16:20:02.877Z,31.6
2022-08-11T16:27:12.836Z,31.32
2022-08-11T16:30:03.378Z,31.27
2022-08-11T16:35:02.921Z,31.32
2022-08-11T16:40:02.694Z,31.76
2022-08-11T16:45:03.370Z,30.85
2022-08-11T16:50:03.140Z,30.98
2022-08-11T16:55:04.528Z,30.77
2022-08-11T17:00:02.253Z,30.55
2022-08-11T17:05:02.891Z,30.39
2022-08-11T17:10:02.486Z,29.76
2022-08-11T17:15:03.317Z,29.35
2022-08-11T17:20:44.239Z,28.96
2022-08-11T17:25:03.195Z,28.63
2022-08-11T17:30:02.660Z,28.64
2022-08-11T17:35:02.921Z,28.59
2022-08-11T17:40:02.567Z,28.66
2022-08-11T17:45:03.078Z,28.82
2022-08-11T17:50:18.457Z,28.22
2022-08-11T17:55:08.236Z,27.82
2022-08-11T18:00:02.659Z,27.57
2022-08-11T18:05:02.550Z,27.15
2022-08-11T18:10:03.188Z,26.88
2022-08-11T18:15:02.960Z,26.72
2022-08-11T18:20:03.101Z,26.48
2022-08-11T18:25:03.161Z,26.18
2022-08-11T18:30:02.644Z,25.91
2022-08-11T18:35:03.333Z,25.53
2022-08-11T18:40:02.973Z,25.29
2022-08-11T18:45:03.044Z,25.01
2022-08-11T18:50:04.161Z,24.81
2022-08-11T18:55:03.960Z,24.43
2022-08-11T19:00:02.233Z,24.7
2022-08-11T19:05:02.948Z,24.32
2022-08-11T19:10:02.674Z,23.79
2022-08-11T19:15:03.188Z,23.64
2022-08-11T19:20:03.136Z,23.53
2022-08-11T19:25:02.487Z,23.42
2022-08-11T19:30:14.234Z,23.37
2022-08-11T19:35:02.940Z,23.22
2022-08-11T19:40:04.495Z,23.25
2022-08-11T19:45:02.677Z,22.84
2022-08-11T19:50:02.533Z,22.02
2022-08-11T19:55:04.176Z,21.43
2022-08-11T20:00:02.415Z,20.84
2022-08-11T20:05:03.003Z,20.46
2022-08-11T20:10:05.613Z,20.92
2022-08-11T20:15:02.366Z,20.87
2022-08-11T20:20:02.979Z,20.48
2022-08-11T20:25:02.401Z,20.38
2022-08-11T20:30:02.227Z,20.9
2022-08-11T20:35:02.791Z,20.72
2022-08-11T20:40:02.436Z,20.89
2022-08-11T20:45:03.204Z,20.34
2022-08-11T20:50:02.917Z,20.73
2022-08-11T20:55:53.813Z,21.1
2022-08-11T21:00:02.404Z,20.79
2022-08-11T21:05:03.280Z,20.76
2022-08-11T21:10:23.096Z,20.67
2022-08-11T21:15:06.110Z,20.43
2022-08-11T21:20:21.088Z,20.13
2022-08-11T21:25:02.593Z,19.78
2022-08-11T21:30:03.129Z,19.62
2022-08-11T21:35:02.847Z,19.77
2022-08-11T21:40:02.958Z,19.59
2022-08-11T21:45:03.577Z,19.18
2022-08-11T21:50:02.854Z,19.08
2022-08-11T21:55:03.834Z,19.86
2022-08-11T22:00:03.472Z,19.94
2022-08-11T22:05:02.758Z,19.81
2022-08-11T22:10:42.922Z,19.61
2022-08-11T22:15:02.895Z,19.47
2022-08-11T22:20:02.711Z,19.43
2022-08-11T22:25:18.375Z,19.28
2022-08-11T22:30:03.227Z,18.96
2022-08-11T22:35:02.657Z,18.66
2022-08-11T22:40:03.609Z,18.8
2022-08-11T22:45:03.302Z,18.48
2022-08-11T22:50:02.828Z,18.57
2022-08-11T22:55:03.524Z,18.3
2022-08-11T23:00:03.231Z,18.33
2022-08-11T23:05:02.489Z,18.18
2022-08-11T23:10:02.298Z,18.36
2022-08-11T23:15:03.091Z,18.18
2022-08-11T23:20:06.518Z,18.08
2022-08-11T23:25:03.160Z,17.97
2022-08-11T23:30:02.573Z,17.77
2022-08-11T23:35:52.831Z,17.59
2022-08-11T23:40:02.811Z,17.24
2022-08-11T23:45:04.023Z,16.56
2022-08-11T23:50:02.470Z,15.69
2022-08-11T23:55:03.884Z,14.99
